sensor_id;sensor_type;location;lat;lon;timestamp;P1;durP1;ratioP1;P2;durP2;ratioP2
38935;SDS011;66589;47.458;9.644;2023-04-25T03:02:13;3.00;;;0.20;;
38935;SDS011;66589;47.458;9.644;2023-04-25T03:04:38;3.40;;;0.50;;
38935;SDS011;66589;47.458;9.644;2023-04-25T03:07:04;3.03;;;0.30;;
38935;SDS011;66589;47.458;9.644;2023-04-25T03:09:30;3.28;;;0.30;;
38935;SDS011;66589;47.458;9.644;2023-04-25T03:11:56;3.03;;;0.30;;
38935;SDS011;66589;47.458;9.644;2023-04-25T03:14:21;4.10;;;0.43;;
38935;SDS011;66589;47.458;9.644;2023-04-25T03:16:47;3.22;;;0.40;;
38935;SDS011;66589;47.458;9.644;2023-04-25T03:19:13;3.53;;;0.52;;
38935;SDS011;66589;47.458;9.644;2023-04-25T03:21:41;3.75;;;0.45;;
38935;SDS011;66589;47.458;9.644;2023-04-25T03:24:06;3.60;;;0.50;;
38935;SDS011;66589;47.458;9.644;2023-04-25T03:26:32;5.20;;;0.60;;
38935;SDS011;66589;47.458;9.644;2023-04-25T03:28:58;6.22;;;0.68;;
38935;SDS011;66589;47.458;9.644;2023-04-25T03:31:23;6.47;;;0.88;;
38935;SDS011;66589;47.458;9.644;2023-04-25T03:33:49;3.33;;;0.60;;
38935;SDS011;66589;47.458;9.644;2023-04-25T03:36:15;4.95;;;0.80;;
38935;SDS011;66589;47.458;9.644;2023-04-25T03:38:41;2.25;;;0.55;;
38935;SDS011;66589;47.458;9.644;2023-04-25T03:41:07;4.25;;;0.52;;
38935;SDS011;66589;47.458;9.644;2023-04-25T03:43:33;3.22;;;0.80;;
38935;SDS011;66589;47.458;9.644;2023-04-25T03:45:58;4.57;;;0.80;;
38935;SDS011;66589;47.458;9.644;2023-04-25T03:48:25;4.75;;;0.68;;
38935;SDS011;66589;47.458;9.644;2023-04-25T03:50:51;4.30;;;0.88;;
38935;SDS011;66589;47.458;9.644;2023-04-25T03:53:17;3.92;;;0.70;;
38935;SDS011;66589;47.458;9.644;2023-04-25T03:55:43;3.28;;;0.90;;
38935;SDS011;66589;47.458;9.644;2023-04-25T03:58:09;4.72;;;1.00;;
38935;SDS011;66589;47.458;9.644;2023-04-25T04:00:35;4.63;;;0.90;;
38935;SDS011;66589;47.458;9.644;2023-04-25T04:03:01;4.10;;;0.90;;
38935;SDS011;66589;47.458;9.644;2023-04-25T04:05:27;5.03;;;0.98;;
38935;SDS011;66589;47.458;9.644;2023-04-25T04:07:53;9.73;;;0.80;;
38935;SDS011;66589;47.458;9.644;2023-04-25T04:10:19;3.42;;;0.75;;
38935;SDS011;66589;47.458;9.644;2023-04-25T04:12:45;5.63;;;0.68;;
38935;SDS011;66589;47.458;9.644;2023-04-25T04:15:11;3.80;;;0.80;;
38935;SDS011;66589;47.458;9.644;2023-04-25T04:17:37;4.35;;;1.05;;
38935;SDS011;66589;47.458;9.644;2023-04-25T04:20:02;4.88;;;0.98;;
38935;SDS011;66589;47.458;9.644;2023-04-25T04:22:28;5.47;;;0.98;;
38935;SDS011;66589;47.458;9.644;2023-04-25T04:24:54;5.50;;;1.40;;
38935;SDS011;66589;47.458;9.644;2023-04-25T04:27:21;4.82;;;0.98;;
38935;SDS011;66589;47.458;9.644;2023-04-25T04:29:47;3.42;;;0.98;;
38935;SDS011;66589;47.458;9.644;2023-04-25T04:32:14;4.07;;;1.50;;
38935;SDS011;66589;47.458;9.644;2023-04-25T04:34:40;3.05;;;1.00;;
38935;SDS011;66589;47.458;9.644;2023-04-25T04:37:06;5.28;;;1.30;;
38935;SDS011;66589;47.458;9.644;2023-04-25T04:39:32;3.85;;;1.30;;
38935;SDS011;66589;47.458;9.644;2023-04-25T04:42:01;5.75;;;1.30;;
38935;SDS011;66589;47.458;9.644;2023-04-25T04:44:28;5.43;;;1.70;;
38935;SDS011;66589;47.458;9.644;2023-04-25T04:46:54;3.65;;;1.20;;
38935;SDS011;66589;47.458;9.644;2023-04-25T04:49:20;6.15;;;1.52;;
38935;SDS011;66589;47.458;9.644;2023-04-25T04:51:46;5.60;;;1.33;;
38935;SDS011;66589;47.458;9.644;2023-04-25T04:54:12;6.30;;;1.60;;
38935;SDS011;66589;47.458;9.644;2023-04-25T04:56:38;4.28;;;1.70;;
38935;SDS011;66589;47.458;9.644;2023-04-25T04:59:04;4.90;;;1.77;;
38935;SDS011;66589;47.458;9.644;2023-04-25T05:01:29;5.45;;;1.10;;
38935;SDS011;66589;47.458;9.644;2023-04-25T05:03:56;4.35;;;1.35;;
38935;SDS011;66589;47.458;9.644;2023-04-25T05:06:25;4.15;;;1.58;;
38935;SDS011;66589;47.458;9.644;2023-04-25T05:08:53;3.10;;;1.30;;
38935;SDS011;66589;47.458;9.644;2023-04-25T05:11:19;6.95;;;1.50;;
38935;SDS011;66589;47.458;9.644;2023-04-25T05:13:45;5.53;;;1.95;;
38935;SDS011;66589;47.458;9.644;2023-04-25T05:16:12;4.68;;;2.10;;
38935;SDS011;66589;47.458;9.644;2023-04-25T05:18:38;7.82;;;1.52;;
38935;SDS011;66589;47.458;9.644;2023-04-25T05:21:05;8.60;;;1.70;;
38935;SDS011;66589;47.458;9.644;2023-04-25T05:23:31;5.22;;;1.27;;
38935;SDS011;66589;47.458;9.644;2023-04-25T05:25:57;12.60;;;1.60;;
38935;SDS011;66589;47.458;9.644;2023-04-25T05:28:23;6.10;;;1.70;;
38935;SDS011;66589;47.458;9.644;2023-04-25T05:30:49;3.92;;;1.60;;
38935;SDS011;66589;47.458;9.644;2023-04-25T05:33:14;3.47;;;1.42;;
38935;SDS011;66589;47.458;9.644;2023-04-25T05:35:40;4.05;;;1.33;;
38935;SDS011;66589;47.458;9.644;2023-04-25T05:38:06;8.50;;;1.70;;
38935;SDS011;66589;47.458;9.644;2023-04-25T05:40:32;4.45;;;1.10;;
38935;SDS011;66589;47.458;9.644;2023-04-25T05:42:58;5.07;;;1.55;;
38935;SDS011;66589;47.458;9.644;2023-04-25T05:45:23;4.60;;;0.80;;
38935;SDS011;66589;47.458;9.644;2023-04-25T05:47:49;7.70;;;0.93;;
38935;SDS011;66589;47.458;9.644;2023-04-25T05:50:15;8.48;;;0.95;;
38935;SDS011;66589;47.458;9.644;2023-04-25T05:52:40;6.40;;;0.93;;
38935;SDS011;66589;47.458;9.644;2023-04-25T05:55:06;4.45;;;1.00;;
38935;SDS011;66589;47.458;9.644;2023-04-25T05:57:32;4.78;;;0.77;;
38935;SDS011;66589;47.458;9.644;2023-04-25T05:59:58;4.90;;;0.75;;
38935;SDS011;66589;47.458;9.644;2023-04-25T06:02:23;3.90;;;0.90;;
38935;SDS011;66589;47.458;9.644;2023-04-25T06:04:50;3.42;;;1.00;;
38935;SDS011;66589;47.458;9.644;2023-04-25T06:07:16;4.03;;;1.02;;
38935;SDS011;66589;47.458;9.644;2023-04-25T06:09:42;3.70;;;1.00;;
38935;SDS011;66589;47.458;9.644;2023-04-25T06:12:08;3.17;;;1.15;;
38935;SDS011;66589;47.458;9.644;2023-04-25T06:14:34;6.80;;;1.10;;
38935;SDS011;66589;47.458;9.644;2023-04-25T06:17:00;4.00;;;1.25;;
38935;SDS011;66589;47.458;9.644;2023-04-25T06:19:33;5.05;;;0.95;;
38935;SDS011;66589;47.458;9.644;2023-04-25T06:21:59;3.35;;;1.00;;
38935;SDS011;66589;47.458;9.644;2023-04-25T06:24:25;2.90;;;0.50;;
38935;SDS011;66589;47.458;9.644;2023-04-25T06:26:51;2.22;;;0.60;;
38935;SDS011;66589;47.458;9.644;2023-04-25T06:29:17;2.45;;;0.60;;
38935;SDS011;66589;47.458;9.644;2023-04-25T06:31:43;3.95;;;0.65;;
38935;SDS011;66589;47.458;9.644;2023-04-25T06:34:09;2.95;;;0.50;;
38935;SDS011;66589;47.458;9.644;2023-04-25T06:36:34;3.50;;;0.80;;
38935;SDS011;66589;47.458;9.644;2023-04-25T06:39:00;2.38;;;0.63;;
38935;SDS011;66589;47.458;9.644;2023-04-25T06:41:26;2.97;;;0.55;;
38935;SDS011;66589;47.458;9.644;2023-04-25T06:43:51;2.58;;;0.60;;
38935;SDS011;66589;47.458;9.644;2023-04-25T06:46:17;2.90;;;0.70;;
38935;SDS011;66589;47.458;9.644;2023-04-25T06:48:43;3.30;;;0.90;;
38935;SDS011;66589;47.458;9.644;2023-04-25T06:51:09;4.45;;;2.03;;
38935;SDS011;66589;47.458;9.644;2023-04-25T06:53:35;4.63;;;1.35;;
38935;SDS011;66589;47.458;9.644;2023-04-25T06:56:01;7.88;;;1.27;;
38935;SDS011;66589;47.458;9.644;2023-04-25T06:58:28;5.95;;;1.77;;
38935;SDS011;66589;47.458;9.644;2023-04-25T07:00:53;3.65;;;0.93;;
38935;SDS011;66589;47.458;9.644;2023-04-25T07:03:19;3.70;;;0.82;;
38935;SDS011;66589;47.458;9.644;2023-04-25T07:05:45;3.95;;;0.77;;
38935;SDS011;66589;47.458;9.644;2023-04-25T07:08:11;2.00;;;0.60;;
38935;SDS011;66589;47.458;9.644;2023-04-25T07:10:37;2.50;;;0.73;;
38935;SDS011;66589;47.458;9.644;2023-04-25T07:13:03;2.22;;;0.43;;
38935;SDS011;66589;47.458;9.644;2023-04-25T07:15:28;3.47;;;0.52;;
38935;SDS011;66589;47.458;9.644;2023-04-25T07:17:54;2.90;;;0.40;;
38935;SDS011;66589;47.458;9.644;2023-04-25T07:20:20;3.47;;;0.50;;
38935;SDS011;66589;47.458;9.644;2023-04-25T07:22:46;1.80;;;0.43;;
38935;SDS011;66589;47.458;9.644;2023-04-25T07:25:11;3.92;;;0.38;;
38935;SDS011;66589;47.458;9.644;2023-04-25T07:27:37;2.30;;;0.40;;
38935;SDS011;66589;47.458;9.644;2023-04-25T07:30:04;5.10;;;0.90;;
38935;SDS011;66589;47.458;9.644;2023-04-25T07:32:30;2.63;;;0.35;;
38935;SDS011;66589;47.458;9.644;2023-04-25T07:34:56;2.72;;;0.45;;
38935;SDS011;66589;47.458;9.644;2023-04-25T07:37:21;5.00;;;0.28;;
38935;SDS011;66589;47.458;9.644;2023-04-25T07:39:47;4.70;;;0.30;;
38935;SDS011;66589;47.458;9.644;2023-04-25T07:42:13;1.98;;;0.40;;
38935;SDS011;66589;47.458;9.644;2023-04-25T07:44:39;4.15;;;0.22;;
38935;SDS011;66589;47.458;9.644;2023-04-25T07:47:08;4.05;;;0.30;;
38935;SDS011;66589;47.458;9.644;2023-04-25T07:49:35;4.53;;;0.32;;
38935;SDS011;66589;47.458;9.644;2023-04-25T07:52:02;1.88;;;0.30;;
38935;SDS011;66589;47.458;9.644;2023-04-25T07:54:29;3.60;;;0.43;;
38935;SDS011;66589;47.458;9.644;2023-04-25T07:56:55;3.38;;;0.40;;
38935;SDS011;66589;47.458;9.644;2023-04-25T07:59:20;4.40;;;0.38;;
38935;SDS011;66589;47.458;9.644;2023-04-25T08:01:46;2.95;;;0.20;;
38935;SDS011;66589;47.458;9.644;2023-04-25T08:04:12;2.63;;;0.20;;
38935;SDS011;66589;47.458;9.644;2023-04-25T08:06:38;1.42;;;0.20;;
38935;SDS011;66589;47.458;9.644;2023-04-25T08:09:04;2.78;;;0.30;;
38935;SDS011;66589;47.458;9.644;2023-04-25T08:11:30;4.15;;;0.52;;
38935;SDS011;66589;47.458;9.644;2023-04-25T08:13:55;4.78;;;0.28;;
38935;SDS011;66589;47.458;9.644;2023-04-25T08:16:21;3.50;;;0.40;;
38935;SDS011;66589;47.458;9.644;2023-04-25T08:18:47;2.33;;;0.20;;
38935;SDS011;66589;47.458;9.644;2023-04-25T08:21:12;4.38;;;0.20;;
38935;SDS011;66589;47.458;9.644;2023-04-25T08:23:38;3.17;;;0.35;;
38935;SDS011;66589;47.458;9.644;2023-04-25T08:26:04;2.45;;;0.30;;
38935;SDS011;66589;47.458;9.644;2023-04-25T08:28:30;3.50;;;0.30;;
38935;SDS011;66589;47.458;9.644;2023-04-25T08:30:56;3.70;;;0.30;;
38935;SDS011;66589;47.458;9.644;2023-04-25T08:33:22;1.80;;;0.30;;
38935;SDS011;66589;47.458;9.644;2023-04-25T08:35:48;5.65;;;0.50;;
38935;SDS011;66589;47.458;9.644;2023-04-25T08:38:13;3.22;;;0.28;;
38935;SDS011;66589;47.458;9.644;2023-04-25T08:40:40;1.60;;;0.20;;
38935;SDS011;66589;47.458;9.644;2023-04-25T08:43:06;3.35;;;0.30;;
38935;SDS011;66589;47.458;9.644;2023-04-25T08:45:38;4.53;;;0.30;;
38935;SDS011;66589;47.458;9.644;2023-04-25T08:48:12;2.15;;;0.40;;
38935;SDS011;66589;47.458;9.644;2023-04-25T08:50:50;2.17;;;0.40;;
38935;SDS011;66589;47.458;9.644;2023-04-25T08:53:28;3.97;;;0.30;;
38935;SDS011;66589;47.458;9.644;2023-04-25T08:55:55;4.05;;;0.20;;
38935;SDS011;66589;47.458;9.644;2023-04-25T08:58:23;2.42;;;0.10;;
38935;SDS011;66589;47.458;9.644;2023-04-25T09:00:49;2.35;;;0.20;;
38935;SDS011;66589;47.458;9.644;2023-04-25T09:03:19;2.00;;;0.20;;
38935;SDS011;66589;47.458;9.644;2023-04-25T09:05:45;3.13;;;0.20;;
38935;SDS011;66589;47.458;9.644;2023-04-25T09:08:10;2.75;;;0.22;;
38935;SDS011;66589;47.458;9.644;2023-04-25T09:10:37;3.67;;;0.40;;
38935;SDS011;66589;47.458;9.644;2023-04-25T09:13:06;2.72;;;0.70;;
38935;SDS011;66589;47.458;9.644;2023-04-25T09:15:58;6.50;;;0.40;;
38935;SDS011;66589;47.458;9.644;2023-04-25T09:18:24;3.80;;;0.43;;
38935;SDS011;66589;47.458;9.644;2023-04-25T09:21:08;2.92;;;0.30;;
38935;SDS011;66589;47.458;9.644;2023-04-25T09:23:44;3.15;;;0.40;;
38935;SDS011;66589;47.458;9.644;2023-04-25T09:26:16;3.45;;;0.30;;
38935;SDS011;66589;47.458;9.644;2023-04-25T09:28:43;1.55;;;0.20;;
38935;SDS011;66589;47.458;9.644;2023-04-25T09:31:10;2.67;;;0.22;;
38935;SDS011;66589;47.458;9.644;2023-04-25T09:33:36;1.48;;;0.22;;
38935;SDS011;66589;47.458;9.644;2023-04-25T09:36:07;2.72;;;0.45;;
38935;SDS011;66589;47.458;9.644;2023-04-25T09:38:40;1.33;;;0.32;;
38935;SDS011;66589;47.458;9.644;2023-04-25T09:41:10;3.58;;;1.17;;
38935;SDS011;66589;47.458;9.644;2023-04-25T09:43:37;1.67;;;0.40;;
38935;SDS011;66589;47.458;9.644;2023-04-25T09:46:08;1.15;;;0.15;;
38935;SDS011;66589;47.458;9.644;2023-04-25T09:48:34;1.05;;;0.20;;
38935;SDS011;66589;47.458;9.644;2023-04-25T09:51:07;3.08;;;0.10;;
38935;SDS011;66589;47.458;9.644;2023-04-25T09:53:39;1.83;;;0.13;;
38935;SDS011;66589;47.458;9.644;2023-04-25T09:56:06;1.20;;;0.10;;
38935;SDS011;66589;47.458;9.644;2023-04-25T09:58:34;2.65;;;0.45;;
38935;SDS011;66589;47.458;9.644;2023-04-25T10:01:02;1.75;;;0.30;;
38935;SDS011;66589;47.458;9.644;2023-04-25T10:03:34;2.15;;;0.35;;
38935;SDS011;66589;47.458;9.644;2023-04-25T10:06:02;1.25;;;0.30;;
38935;SDS011;66589;47.458;9.644;2023-04-25T10:08:36;1.38;;;0.20;;
38935;SDS011;66589;47.458;9.644;2023-04-25T10:11:04;3.15;;;0.20;;
38935;SDS011;66589;47.458;9.644;2023-04-25T10:13:31;1.85;;;0.20;;
38935;SDS011;66589;47.458;9.644;2023-04-25T10:15:58;2.15;;;0.30;;
38935;SDS011;66589;47.458;9.644;2023-04-25T10:18:26;1.02;;;0.22;;
38935;SDS011;66589;47.458;9.644;2023-04-25T10:20:56;1.60;;;0.20;;
38935;SDS011;66589;47.458;9.644;2023-04-25T10:23:24;2.10;;;0.20;;
38935;SDS011;66589;47.458;9.644;2023-04-25T10:25:51;3.08;;;0.50;;
38935;SDS011;66589;47.458;9.644;2023-04-25T10:28:17;3.58;;;0.50;;
38935;SDS011;66589;47.458;9.644;2023-04-25T10:30:59;1.17;;;0.20;;
38935;SDS011;66589;47.458;9.644;2023-04-25T10:33:34;1.90;;;0.30;;
38935;SDS011;66589;47.458;9.644;2023-04-25T10:36:20;1.75;;;0.20;;
38935;SDS011;66589;47.458;9.644;2023-04-25T10:38:48;3.25;;;0.20;;
38935;SDS011;66589;47.458;9.644;2023-04-25T10:41:16;1.77;;;0.20;;
38935;SDS011;66589;47.458;9.644;2023-04-25T10:43:44;1.20;;;0.10;;
38935;SDS011;66589;47.458;9.644;2023-04-25T10:46:27;1.67;;;0.10;;
38935;SDS011;66589;47.458;9.644;2023-04-25T10:48:57;0.98;;;0.10;;
38935;SDS011;66589;47.458;9.644;2023-04-25T10:56:20;1.70;;;0.10;;
38935;SDS011;66589;47.458;9.644;2023-04-25T10:58:47;0.77;;;0.10;;
38935;SDS011;66589;47.458;9.644;2023-04-25T11:01:14;2.33;;;0.10;;
38935;SDS011;66589;47.458;9.644;2023-04-25T11:03:45;0.63;;;0.20;;
38935;SDS011;66589;47.458;9.644;2023-04-25T11:09:14;0.77;;;0.10;;
38935;SDS011;66589;47.458;9.644;2023-04-25T11:11:40;0.55;;;0.20;;
38935;SDS011;66589;47.458;9.644;2023-04-25T11:14:06;0.95;;;0.20;;
38935;SDS011;66589;47.458;9.644;2023-04-25T11:16:32;2.17;;;0.35;;
38935;SDS011;66589;47.458;9.644;2023-04-25T11:18:58;2.17;;;0.20;;
38935;SDS011;66589;47.458;9.644;2023-04-25T11:21:27;2.28;;;0.15;;
38935;SDS011;66589;47.458;9.644;2023-04-25T11:23:55;2.58;;;0.10;;
38935;SDS011;66589;47.458;9.644;2023-04-25T11:26:21;2.90;;;0.30;;
38935;SDS011;66589;47.458;9.644;2023-04-25T11:28:48;1.50;;;0.40;;
38935;SDS011;66589;47.458;9.644;2023-04-25T11:31:14;1.45;;;0.22;;
38935;SDS011;66589;47.458;9.644;2023-04-25T11:33:40;1.50;;;0.20;;
38935;SDS011;66589;47.458;9.644;2023-04-25T11:36:07;0.90;;;0.20;;
38935;SDS011;66589;47.458;9.644;2023-04-25T11:38:33;1.30;;;0.30;;
38935;SDS011;66589;47.458;9.644;2023-04-25T11:40:59;2.40;;;0.30;;
38935;SDS011;66589;47.458;9.644;2023-04-25T11:43:25;1.75;;;0.30;;
38935;SDS011;66589;47.458;9.644;2023-04-25T11:45:51;2.00;;;0.40;;
38935;SDS011;66589;47.458;9.644;2023-04-25T11:48:19;3.10;;;0.57;;
38935;SDS011;66589;47.458;9.644;2023-04-25T11:50:45;2.35;;;0.90;;
38935;SDS011;66589;47.458;9.644;2023-04-25T11:53:11;2.33;;;0.25;;
38935;SDS011;66589;47.458;9.644;2023-04-25T11:55:37;2.17;;;0.50;;
38935;SDS011;66589;47.458;9.644;2023-04-25T11:58:03;1.60;;;0.60;;
38935;SDS011;66589;47.458;9.644;2023-04-25T12:00:30;1.85;;;0.20;;
38935;SDS011;66589;47.458;9.644;2023-04-25T12:02:56;1.70;;;0.20;;
38935;SDS011;66589;47.458;9.644;2023-04-25T12:05:24;1.48;;;0.20;;
38935;SDS011;66589;47.458;9.644;2023-04-25T12:07:51;2.10;;;0.30;;
38935;SDS011;66589;47.458;9.644;2023-04-25T12:10:17;0.65;;;0.10;;
38935;SDS011;66589;47.458;9.644;2023-04-25T12:12:44;0.60;;;0.10;;
38935;SDS011;66589;47.458;9.644;2023-04-25T12:15:11;0.52;;;0.10;;
38935;SDS011;66589;47.458;9.644;2023-04-25T12:17:47;1.63;;;0.10;;
38935;SDS011;66589;47.458;9.644;2023-04-25T12:20:16;1.23;;;0.10;;
38935;SDS011;66589;47.458;9.644;2023-04-25T12:22:45;0.73;;;0.10;;
38935;SDS011;66589;47.458;9.644;2023-04-25T12:25:12;1.58;;;0.00;;
38935;SDS011;66589;47.458;9.644;2023-04-25T12:28:17;0.50;;;0.10;;
38935;SDS011;66589;47.458;9.644;2023-04-25T12:33:21;0.35;;;0.05;;
38935;SDS011;66589;47.458;9.644;2023-04-25T12:35:47;1.65;;;0.03;;
38935;SDS011;66589;47.458;9.644;2023-04-25T12:38:26;1.48;;;0.10;;
38935;SDS011;66589;47.458;9.644;2023-04-25T12:40:58;0.25;;;0.00;;
38935;SDS011;66589;47.458;9.644;2023-04-25T12:43:24;0.70;;;0.00;;
38935;SDS011;66589;47.458;9.644;2023-04-25T12:45:51;3.28;;;0.20;;
38935;SDS011;66589;47.458;9.644;2023-04-25T12:48:18;2.90;;;0.30;;
38935;SDS011;66589;47.458;9.644;2023-04-25T12:50:44;3.05;;;0.10;;
38935;SDS011;66589;47.458;9.644;2023-04-25T12:53:13;0.47;;;0.00;;
38935;SDS011;66589;47.458;9.644;2023-04-25T12:55:43;1.23;;;0.05;;
38935;SDS011;66589;47.458;9.644;2023-04-25T12:58:11;1.95;;;0.00;;
38935;SDS011;66589;47.458;9.644;2023-04-25T13:00:37;1.40;;;0.00;;
38935;SDS011;66589;47.458;9.644;2023-04-25T13:03:02;0.50;;;0.00;;
38935;SDS011;66589;47.458;9.644;2023-04-25T13:05:29;0.55;;;0.00;;
38935;SDS011;66589;47.458;9.644;2023-04-25T13:07:55;0.30;;;0.00;;
38935;SDS011;66589;47.458;9.644;2023-04-25T13:10:21;0.60;;;0.10;;
38935;SDS011;66589;47.458;9.644;2023-04-25T13:12:47;0.65;;;0.00;;
38935;SDS011;66589;47.458;9.644;2023-04-25T13:15:12;2.60;;;0.10;;
38935;SDS011;66589;47.458;9.644;2023-04-25T13:17:40;1.10;;;0.10;;
38935;SDS011;66589;47.458;9.644;2023-04-25T13:20:06;0.88;;;0.10;;
38935;SDS011;66589;47.458;9.644;2023-04-25T13:22:34;0.90;;;0.10;;
38935;SDS011;66589;47.458;9.644;2023-04-25T13:25:04;0.95;;;0.10;;
38935;SDS011;66589;47.458;9.644;2023-04-25T13:27:31;0.65;;;0.15;;
38935;SDS011;66589;47.458;9.644;2023-04-25T13:29:59;1.05;;;0.22;;
38935;SDS011;66589;47.458;9.644;2023-04-25T13:32:26;0.57;;;0.00;;
38935;SDS011;66589;47.458;9.644;2023-04-25T13:34:52;1.73;;;0.00;;
38935;SDS011;66589;47.458;9.644;2023-04-25T13:37:18;0.20;;;0.00;;
38935;SDS011;66589;47.458;9.644;2023-04-25T13:39:44;1.08;;;0.10;;
38935;SDS011;66589;47.458;9.644;2023-04-25T13:42:10;0.73;;;0.10;;
38935;SDS011;66589;47.458;9.644;2023-04-25T13:44:36;0.77;;;0.10;;
38935;SDS011;66589;47.458;9.644;2023-04-25T13:47:02;1.38;;;0.10;;
38935;SDS011;66589;47.458;9.644;2023-04-25T13:49:27;1.58;;;0.10;;
38935;SDS011;66589;47.458;9.644;2023-04-25T13:51:53;2.42;;;0.50;;
38935;SDS011;66589;47.458;9.644;2023-04-25T13:54:19;4.22;;;0.45;;
38935;SDS011;66589;47.458;9.644;2023-04-25T13:56:45;1.33;;;0.10;;
38935;SDS011;66589;47.458;9.644;2023-04-25T13:59:10;2.08;;;0.20;;
38935;SDS011;66589;47.458;9.644;2023-04-25T14:01:36;1.35;;;0.20;;
38935;SDS011;66589;47.458;9.644;2023-04-25T14:04:02;1.02;;;0.20;;
38935;SDS011;66589;47.458;9.644;2023-04-25T14:06:31;1.20;;;0.10;;
38935;SDS011;66589;47.458;9.644;2023-04-25T14:08:57;1.85;;;0.10;;
38935;SDS011;66589;47.458;9.644;2023-04-25T14:11:26;2.33;;;0.10;;
38935;SDS011;66589;47.458;9.644;2023-04-25T14:13:51;1.05;;;0.10;;
38935;SDS011;66589;47.458;9.644;2023-04-25T14:16:17;1.13;;;0.10;;
38935;SDS011;66589;47.458;9.644;2023-04-25T14:18:43;1.13;;;0.10;;
38935;SDS011;66589;47.458;9.644;2023-04-25T14:21:08;1.67;;;0.10;;
38935;SDS011;66589;47.458;9.644;2023-04-25T14:23:35;4.00;;;0.10;;
38935;SDS011;66589;47.458;9.644;2023-04-25T14:26:00;2.45;;;0.30;;
38935;SDS011;66589;47.458;9.644;2023-04-25T14:28:26;1.48;;;0.20;;
38935;SDS011;66589;47.458;9.644;2023-04-25T14:30:52;2.05;;;0.20;;
38935;SDS011;66589;47.458;9.644;2023-04-25T14:33:18;1.98;;;0.20;;
38935;SDS011;66589;47.458;9.644;2023-04-25T14:35:43;1.75;;;0.10;;
38935;SDS011;66589;47.458;9.644;2023-04-25T14:38:09;2.63;;;0.20;;
38935;SDS011;66589;47.458;9.644;2023-04-25T14:40:35;1.00;;;0.17;;
38935;SDS011;66589;47.458;9.644;2023-04-25T14:43:01;2.55;;;0.20;;
38935;SDS011;66589;47.458;9.644;2023-04-25T14:45:27;0.60;;;0.10;;
38935;SDS011;66589;47.458;9.644;2023-04-25T14:47:53;1.20;;;0.22;;
38935;SDS011;66589;47.458;9.644;2023-04-25T14:50:19;0.80;;;0.10;;
38935;SDS011;66589;47.458;9.644;2023-04-25T14:52:44;1.85;;;0.20;;
38935;SDS011;66589;47.458;9.644;2023-04-25T14:55:10;1.27;;;0.30;;
38935;SDS011;66589;47.458;9.644;2023-04-25T14:57:36;2.50;;;0.10;;
38935;SDS011;66589;47.458;9.644;2023-04-25T15:00:04;1.88;;;0.10;;
38935;SDS011;66589;47.458;9.644;2023-04-25T15:02:34;1.35;;;0.20;;
38935;SDS011;66589;47.458;9.644;2023-04-25T15:05:00;0.73;;;0.20;;
38935;SDS011;66589;47.458;9.644;2023-04-25T15:07:26;0.80;;;0.15;;
38935;SDS011;66589;47.458;9.644;2023-04-25T15:09:51;0.40;;;0.10;;
38935;SDS011;66589;47.458;9.644;2023-04-25T15:12:18;1.00;;;0.17;;
38935;SDS011;66589;47.458;9.644;2023-04-25T15:14:44;1.38;;;0.10;;
38935;SDS011;66589;47.458;9.644;2023-04-25T15:17:10;0.77;;;0.20;;
38935;SDS011;66589;47.458;9.644;2023-04-25T15:19:38;1.13;;;0.10;;
38935;SDS011;66589;47.458;9.644;2023-04-25T15:22:04;2.60;;;0.10;;
38935;SDS011;66589;47.458;9.644;2023-04-25T15:24:31;0.90;;;0.20;;
38935;SDS011;66589;47.458;9.644;2023-04-25T15:26:57;0.60;;;0.10;;
38935;SDS011;66589;47.458;9.644;2023-04-25T15:29:23;1.05;;;0.10;;
38935;SDS011;66589;47.458;9.644;2023-04-25T15:31:49;0.50;;;0.10;;
38935;SDS011;66589;47.458;9.644;2023-04-25T15:34:15;1.58;;;0.10;;
38935;SDS011;66589;47.458;9.644;2023-04-25T15:36:41;1.02;;;0.10;;
38935;SDS011;66589;47.458;9.644;2023-04-25T15:39:06;1.88;;;0.10;;
38935;SDS011;66589;47.458;9.644;2023-04-25T15:41:32;1.15;;;0.10;;
38935;SDS011;66589;47.458;9.644;2023-04-25T15:43:59;4.13;;;0.47;;
38935;SDS011;66589;47.458;9.644;2023-04-25T15:46:25;1.00;;;0.10;;
38935;SDS011;66589;47.458;9.644;2023-04-25T15:48:51;0.80;;;0.17;;
38935;SDS011;66589;47.458;9.644;2023-04-25T15:51:17;1.30;;;0.20;;
38935;SDS011;66589;47.458;9.644;2023-04-25T15:53:43;2.30;;;0.20;;
38935;SDS011;66589;47.458;9.644;2023-04-25T15:56:08;1.58;;;0.20;;
38935;SDS011;66589;47.458;9.644;2023-04-25T15:58:35;1.17;;;0.15;;
38935;SDS011;66589;47.458;9.644;2023-04-25T16:01:00;1.75;;;0.20;;
38935;SDS011;66589;47.458;9.644;2023-04-25T16:03:27;1.85;;;0.20;;
38935;SDS011;66589;47.458;9.644;2023-04-25T16:05:53;1.42;;;0.10;;
38935;SDS011;66589;47.458;9.644;2023-04-25T16:08:18;2.38;;;0.10;;
38935;SDS011;66589;47.458;9.644;2023-04-25T16:10:45;3.10;;;0.85;;
38935;SDS011;66589;47.458;9.644;2023-04-25T16:13:12;3.10;;;0.80;;
38935;SDS011;66589;47.458;9.644;2023-04-25T16:15:37;2.75;;;0.32;;
38935;SDS011;66589;47.458;9.644;2023-04-25T16:18:04;0.95;;;0.17;;
38935;SDS011;66589;47.458;9.644;2023-04-25T16:20:30;0.60;;;0.10;;
38935;SDS011;66589;47.458;9.644;2023-04-25T16:22:55;1.52;;;0.10;;
38935;SDS011;66589;47.458;9.644;2023-04-25T16:25:21;0.77;;;0.10;;
38935;SDS011;66589;47.458;9.644;2023-04-25T16:27:47;0.70;;;0.20;;
38935;SDS011;66589;47.458;9.644;2023-04-25T16:30:13;0.88;;;0.10;;
38935;SDS011;66589;47.458;9.644;2023-04-25T16:32:39;0.50;;;0.10;;
38935;SDS011;66589;47.458;9.644;2023-04-25T16:35:05;0.85;;;0.10;;
38935;SDS011;66589;47.458;9.644;2023-04-25T16:37:32;0.95;;;0.10;;
38935;SDS011;66589;47.458;9.644;2023-04-25T16:39:57;1.40;;;0.20;;
38935;SDS011;66589;47.458;9.644;2023-04-25T16:42:23;4.18;;;0.80;;
38935;SDS011;66589;47.458;9.644;2023-04-25T16:44:49;1.70;;;0.30;;
38935;SDS011;66589;47.458;9.644;2023-04-25T16:47:15;3.90;;;0.80;;
38935;SDS011;66589;47.458;9.644;2023-04-25T16:49:41;0.70;;;0.10;;
38935;SDS011;66589;47.458;9.644;2023-04-25T16:52:06;2.03;;;0.50;;
38935;SDS011;66589;47.458;9.644;2023-04-25T16:54:32;2.67;;;0.28;;
38935;SDS011;66589;47.458;9.644;2023-04-25T16:56:58;2.70;;;0.25;;
38935;SDS011;66589;47.458;9.644;2023-04-25T16:59:24;3.38;;;0.30;;
38935;SDS011;66589;47.458;9.644;2023-04-25T17:01:49;1.83;;;0.30;;
38935;SDS011;66589;47.458;9.644;2023-04-25T17:04:15;2.10;;;0.20;;
38935;SDS011;66589;47.458;9.644;2023-04-25T17:06:41;1.50;;;0.20;;
38935;SDS011;66589;47.458;9.644;2023-04-25T17:09:06;1.02;;;0.20;;
38935;SDS011;66589;47.458;9.644;2023-04-25T17:11:32;1.00;;;0.20;;
38935;SDS011;66589;47.458;9.644;2023-04-25T17:13:58;1.52;;;0.30;;
38935;SDS011;66589;47.458;9.644;2023-04-25T17:16:28;3.72;;;0.20;;
38935;SDS011;66589;47.458;9.644;2023-04-25T17:18:59;1.10;;;0.30;;
38935;SDS011;66589;47.458;9.644;2023-04-25T17:21:24;3.85;;;0.52;;
38935;SDS011;66589;47.458;9.644;2023-04-25T17:23:50;1.60;;;0.20;;
38935;SDS011;66589;47.458;9.644;2023-04-25T17:26:16;1.73;;;0.20;;
38935;SDS011;66589;47.458;9.644;2023-04-25T17:28:42;1.98;;;0.43;;
38935;SDS011;66589;47.458;9.644;2023-04-25T17:31:12;1.73;;;0.30;;
38935;SDS011;66589;47.458;9.644;2023-04-25T17:33:39;3.15;;;0.28;;
38935;SDS011;66589;47.458;9.644;2023-04-25T17:36:05;1.50;;;0.20;;
38935;SDS011;66589;47.458;9.644;2023-04-25T17:38:31;1.35;;;0.20;;
38935;SDS011;66589;47.458;9.644;2023-04-25T17:40:58;3.13;;;0.20;;
38935;SDS011;66589;47.458;9.644;2023-04-25T17:43:24;2.60;;;0.85;;
38935;SDS011;66589;47.458;9.644;2023-04-25T17:45:51;1.70;;;0.30;;
38935;SDS011;66589;47.458;9.644;2023-04-25T17:48:17;2.55;;;0.75;;
38935;SDS011;66589;47.458;9.644;2023-04-25T17:50:43;2.50;;;0.40;;
38935;SDS011;66589;47.458;9.644;2023-04-25T17:53:09;1.85;;;0.40;;
38935;SDS011;66589;47.458;9.644;2023-04-25T17:55:35;1.77;;;0.40;;
38935;SDS011;66589;47.458;9.644;2023-04-25T17:58:01;1.80;;;0.60;;